Time;durP1;ratioP1;P1;durP2;ratioP2;P2;SDS_P1;SDS_P2;PMS_P1;PMS_P2;Temp;Humidity;BMP_temperature;BMP_pressure;BME280_temperature;BME280_humidity;BME280_pressure;Samples;Min_cycle;Max_cycle;Signal;HPM_P1;HPM_P2
2022/11/25 00:01:19;;;;;;;445.17;417.87;;;2.20;37.90;;;;;;5034746;28;20176;-70
2022/11/25 00:03:45;;;;;;;465.50;438.63;;;2.10;38.10;;;;;;5034637;28;20184;-70
2022/11/25 00:06:16;;;;;;;465.55;437.55;;;2.10;38.50;;;;;;5033433;28;20184;-70
2022/11/25 00:08:44;;;;;;;648.17;607.97;;;2.10;38.10;;;;;;5034120;28;20204;-70
2022/11/25 00:11:10;;;;;;;90.10;68.88;;;2.10;37.50;;;;;;5034360;28;20202;-70
2022/11/25 00:13:37;;;;;;;152.07;139.18;;;2.00;39.40;;;;;;5034193;28;20187;-70
2022/11/25 00:16:05;;;;;;;405.02;381.73;;;2.10;39.10;;;;;;5034451;28;20180;-70
2022/11/25 00:18:31;;;;;;;485.90;458.48;;;2.20;39.20;;;;;;5034185;28;20203;-69
2022/11/25 00:20:56;;;;;;;306.40;286.65;;;2.10;39.10;;;;;;5034143;28;20262;-69
2022/11/25 00:23:22;;;;;;;91.47;75.13;;;2.10;39.80;;;;;;5034095;28;20682;-69
2022/11/25 00:25:48;;;;;;;395.48;372.63;;;2.10;39.90;;;;;;5034148;28;20442;-69
2022/11/25 00:28:14;;;;;;;335.83;315.27;;;2.20;39.40;;;;;;5034113;28;20246;-69
2022/11/25 00:30:39;;;;;;;475.13;448.67;;;2.20;39.60;;;;;;5034210;28;20178;-70
2022/11/25 00:33:05;;;;;;;298.20;277.73;;;2.20;39.30;;;;;;5034075;28;20577;-69
2022/11/25 00:35:33;;;;;;;94.10;80.67;;;2.20;40.00;;;;;;5034911;28;20554;-70
2022/11/25 00:37:58;;;;;;;119.60;107.75;;;2.30;39.30;;;;;;5034718;28;20195;-70
2022/11/25 00:40:25;;;;;;;197.00;181.73;;;2.30;39.50;;;;;;5035102;28;20662;-70
2022/11/25 00:45:35;;;;;;;464.80;437.40;;;2.40;41.00;;;;;;5034835;28;20236;-70
2022/11/25 00:48:00;;;;;;;208.40;191.47;;;2.40;40.20;;;;;;5033874;28;20615;-70
2022/11/25 00:50:26;;;;;;;375.17;353.27;;;2.40;41.00;;;;;;5033735;28;20190;-70
2022/11/25 00:52:51;;;;;;;478.93;450.43;;;2.40;41.00;;;;;;5033261;28;20169;-70
2022/11/25 00:55:17;;;;;;;121.67;109.13;;;2.50;40.20;;;;;;5032144;28;20232;-70
2022/11/25 00:57:42;;;;;;;440.53;411.90;;;2.50;41.10;;;;;;5033191;28;20215;-69
2022/11/25 01:00:10;;;;;;;213.23;197.80;;;2.60;40.20;;;;;;5033367;28;20177;-70
2022/11/25 01:02:35;;;;;;;161.98;147.95;;;2.60;40.00;;;;;;5032912;28;20180;-70
2022/11/25 01:05:01;;;;;;;342.90;321.43;;;2.60;40.40;;;;;;5033312;28;20193;-71
2022/11/25 01:07:27;;;;;;;367.27;344.37;;;2.70;40.40;;;;;;5033278;28;20263;-71
2022/11/25 01:09:52;;;;;;;273.67;255.70;;;2.70;39.50;;;;;;5034166;28;20631;-71
2022/11/25 01:12:18;;;;;;;251.17;234.57;;;2.70;41.20;;;;;;5038210;28;20655;-71
2022/11/25 01:14:43;;;;;;;354.23;328.73;;;2.80;39.40;;;;;;5040618;28;20244;-71
2022/11/25 01:17:09;;;;;;;330.30;310.83;;;2.80;40.00;;;;;;5040502;28;20215;-71
2022/11/25 01:19:38;;;;;;;174.87;161.47;;;2.80;40.40;;;;;;5039436;28;20696;-71
2022/11/25 01:22:05;;;;;;;380.20;357.05;;;2.80;40.00;;;;;;5039469;28;20196;-70
2022/11/25 01:24:31;;;;;;;450.73;421.08;;;2.90;39.10;;;;;;5039346;28;20189;-71
2022/11/25 01:26:56;;;;;;;486.03;456.83;;;2.80;38.00;;;;;;5038860;28;20191;-70
2022/11/25 01:29:22;;;;;;;216.50;200.70;;;2.90;38.90;;;;;;5038428;28;20283;-71
2022/11/25 01:31:48;;;;;;;181.90;165.80;;;2.90;38.90;;;;;;5036145;28;20234;-70
2022/11/25 01:34:14;;;;;;;181.80;166.20;;;3.00;38.80;;;;;;5036699;28;20564;-71
2022/11/25 01:36:40;;;;;;;313.20;290.02;;;3.00;39.30;;;;;;5032614;28;20181;-70
2022/11/25 01:39:07;;;;;;;343.10;322.33;;;3.10;39.30;;;;;;5031276;28;20294;-70
2022/11/25 01:41:34;;;;;;;116.35;104.90;;;3.10;39.50;;;;;;5032511;28;20175;-70
2022/11/25 01:44:13;;;;;;;426.88;401.67;;;3.20;38.70;;;;;;5032946;28;20184;-70
2022/11/25 01:47:09;;;;;;;175.05;159.32;;;3.30;37.50;;;;;;5032582;28;20560;-70
2022/11/25 01:49:58;;;;;;;370.83;347.25;;;3.30;36.70;;;;;;5032429;28;20576;-70
2022/11/25 01:52:29;;;;;;;193.02;176.35;;;3.20;36.60;;;;;;5032150;28;20255;-70
2022/11/25 01:55:12;;;;;;;318.90;297.00;;;3.20;37.10;;;;;;5032437;28;20175;-70
2022/11/25 01:57:53;;;;;;;384.95;356.85;;;3.20;36.60;;;;;;5032595;28;20590;-69
2022/11/25 02:00:19;;;;;;;206.30;188.55;;;3.20;37.30;;;;;;5032468;28;20179;-69
2022/11/25 02:02:47;;;;;;;355.08;329.15;;;3.20;38.00;;;;;;5032030;28;20539;-69
2022/11/25 02:05:17;;;;;;;275.13;254.93;;;3.20;38.30;;;;;;5032263;28;20172;-70
2022/11/25 02:07:46;;;;;;;360.65;336.55;;;3.30;38.10;;;;;;5032021;28;20674;-70
2022/11/25 02:10:15;;;;;;;468.42;438.15;;;3.40;37.50;;;;;;5031976;28;20280;-70
2022/11/25 02:12:44;;;;;;;596.95;556.83;;;3.40;36.80;;;;;;5031919;28;20176;-70
2022/11/25 02:15:10;;;;;;;493.70;461.15;;;3.40;36.80;;;;;;5031639;28;20660;-73
2022/11/25 02:17:35;;;;;;;512.58;479.67;;;3.30;37.30;;;;;;5032840;28;20227;-71
2022/11/25 02:20:04;;;;;;;484.63;456.77;;;3.10;37.60;;;;;;5033296;28;20256;-71
2022/11/25 02:22:32;;;;;;;538.47;507.92;;;3.10;39.20;;;;;;5032599;28;20182;-71
2022/11/25 02:25:09;;;;;;;574.88;538.17;;;3.20;38.30;;;;;;5033107;28;20182;-71
2022/11/25 02:27:35;;;;;;;395.30;369.10;;;3.30;37.40;;;;;;5033283;28;20691;-70
2022/11/25 02:30:00;;;;;;;316.33;292.97;;;3.30;37.10;;;;;;5033508;28;20172;-71
2022/11/25 02:32:26;;;;;;;420.17;393.63;;;3.30;37.50;;;;;;5032910;28;20184;-71
2022/11/25 02:34:51;;;;;;;482.67;452.83;;;3.30;37.90;;;;;;5032936;28;20456;-70
2022/11/25 02:37:21;;;;;;;540.50;507.43;;;3.30;37.80;;;;;;5033004;28;20196;-71
2022/11/25 02:39:48;;;;;;;416.95;390.65;;;3.30;36.70;;;;;;5033139;28;20182;-70
2022/11/25 02:42:17;;;;;;;255.13;236.82;;;3.40;37.30;;;;;;5032790;28;20178;-70
2022/11/25 02:44:42;;;;;;;744.92;697.00;;;3.40;36.80;;;;;;5033116;28;20167;-70
2022/11/25 02:47:08;;;;;;;657.30;615.30;;;3.40;36.80;;;;;;5032793;28;20199;-70
2022/11/25 02:49:33;;;;;;;570.97;534.53;;;3.30;36.60;;;;;;5032587;28;20207;-70
2022/11/25 02:51:59;;;;;;;543.80;507.37;;;3.10;36.50;;;;;;5032482;28;20521;-70
2022/11/25 02:54:24;;;;;;;358.97;332.93;;;3.10;36.50;;;;;;5032569;28;20558;-71
2022/11/25 02:56:50;;;;;;;553.33;516.33;;;2.90;36.40;;;;;;5032627;28;21008;-71
2022/11/25 02:59:15;;;;;;;391.23;365.27;;;2.80;35.50;;;;;;5032721;28;20268;-71
2022/11/25 03:01:41;;;;;;;708.27;661.90;;;2.70;34.20;;;;;;5032238;28;20175;-71
2022/11/25 03:04:07;;;;;;;470.57;438.43;;;2.60;33.90;;;;;;5032643;28;20540;-70
2022/11/25 03:06:33;;;;;;;175.53;160.83;;;2.60;33.20;;;;;;5032809;28;20180;-70
2022/11/25 03:08:59;;;;;;;350.27;327.80;;;2.50;35.20;;;;;;5033004;28;20204;-70
2022/11/25 03:12:17;;;;;;;527.67;495.37;;;2.40;35.90;;;;;;5032453;28;20700;-70
2022/11/25 03:14:10;;;;;;;443.55;412.13;;;2.40;35.90;;;;;;5032429;28;20844;-70
2022/11/25 03:16:35;;;;;;;404.30;379.83;;;2.50;36.00;;;;;;5031008;28;20186;-70
2022/11/25 03:19:01;;;;;;;714.40;667.27;;;2.50;36.10;;;;;;5032196;28;20192;-70
2022/11/25 03:21:26;;;;;;;299.53;276.67;;;2.40;35.90;;;;;;5032269;28;20218;-70
2022/11/25 03:23:52;;;;;;;362.33;339.10;;;2.50;36.10;;;;;;5032046;28;20207;-70
2022/11/25 03:26:17;;;;;;;355.50;333.83;;;2.50;36.10;;;;;;5033068;28;20192;-70
2022/11/25 03:28:43;;;;;;;352.30;330.27;;;2.40;36.50;;;;;;5036140;28;20211;-69
2022/11/25 03:31:11;;;;;;;404.43;376.43;;;2.50;37.10;;;;;;5036248;28;20545;-69
2022/11/25 03:33:37;;;;;;;428.92;401.77;;;2.50;36.00;;;;;;5035438;28;20175;-70
2022/11/25 03:36:02;;;;;;;371.63;347.83;;;2.60;36.20;;;;;;5035778;28;20172;-70
2022/11/25 03:38:28;;;;;;;374.50;350.73;;;2.60;36.10;;;;;;5035667;28;20294;-70
2022/11/25 03:40:54;;;;;;;390.77;367.30;;;2.60;36.10;;;;;;5036148;28;20664;-69
2022/11/25 03:43:19;;;;;;;380.53;356.73;;;2.60;36.10;;;;;;5035298;28;20642;-69
2022/11/25 03:45:48;;;;;;;175.93;160.27;;;2.60;36.10;;;;;;5035506;28;20188;-69
2022/11/25 03:48:14;;;;;;;148.52;134.80;;;2.60;36.10;;;;;;5035263;28;20205;-69
2022/11/25 03:50:41;;;;;;;372.37;349.63;;;2.70;36.20;;;;;;5035273;28;20183;-69
2022/11/25 03:53:07;;;;;;;142.73;129.13;;;2.70;36.20;;;;;;5035273;28;20406;-70
2022/11/25 03:55:32;;;;;;;496.03;465.07;;;2.70;37.60;;;;;;5035366;28;20180;-69
2022/11/25 03:57:58;;;;;;;282.60;261.93;;;2.80;37.20;;;;;;5035446;28;20222;-69
2022/11/25 04:00:23;;;;;;;355.73;332.27;;;2.80;37.40;;;;;;5035540;28;20189;-69
2022/11/25 04:02:49;;;;;;;529.40;499.20;;;2.80;36.30;;;;;;5034767;28;20664;-70
2022/11/25 04:05:14;;;;;;;276.50;258.07;;;2.90;37.00;;;;;;5039773;28;20193;-70
2022/11/25 04:07:40;;;;;;;468.03;439.57;;;3.00;37.60;;;;;;5054439;28;20208;-70
2022/11/25 04:10:06;;;;;;;546.33;513.27;;;3.00;37.20;;;;;;5053387;28;20190;-70
2022/11/25 04:12:47;;;;;;;595.92;559.50;;;3.00;36.80;;;;;;5054526;28;20590;-70
2022/11/25 04:15:15;;;;;;;420.13;395.35;;;2.90;37.50;;;;;;5054655;28;20171;-70
2022/11/25 04:17:41;;;;;;;226.52;210.15;;;3.00;38.30;;;;;;5054327;28;20208;-70
2022/11/25 04:20:06;;;;;;;381.30;355.50;;;3.20;37.10;;;;;;5054599;28;20182;-70
2022/11/25 04:22:32;;;;;;;498.67;470.27;;;3.20;36.60;;;;;;5054195;28;20186;-70
2022/11/25 04:24:57;;;;;;;490.07;461.77;;;3.30;36.70;;;;;;5054291;28;20430;-70
2022/11/25 04:27:23;;;;;;;279.20;261.13;;;3.30;36.70;;;;;;5054683;28;20582;-70
2022/11/25 04:29:49;;;;;;;461.07;433.43;;;3.40;36.80;;;;;;5054748;28;20181;-71
2022/11/25 04:32:14;;;;;;;512.00;482.30;;;3.40;36.80;;;;;;5054641;28;20234;-70
2022/11/25 04:34:40;;;;;;;527.10;496.60;;;3.40;36.80;;;;;;5054417;28;20265;-70
2022/11/25 04:37:05;;;;;;;500.30;470.63;;;3.40;36.80;;;;;;5054169;28;20207;-71
2022/11/25 04:39:31;;;;;;;549.63;516.20;;;3.30;36.10;;;;;;5053384;28;20240;-70
2022/11/25 04:44:40;;;;;;;494.35;465.42;;;3.30;36.70;;;;;;5053818;28;20554;-70
2022/11/25 04:47:06;;;;;;;520.93;488.43;;;3.20;36.60;;;;;;5053789;28;20196;-70
2022/11/25 04:49:31;;;;;;;187.73;172.23;;;3.20;36.60;;;;;;5053735;28;20551;-69
2022/11/25 04:51:57;;;;;;;527.33;493.93;;;3.20;36.60;;;;;;5053742;28;20171;-70
2022/11/25 04:54:22;;;;;;;407.50;381.17;;;3.20;36.60;;;;;;5054017;28;20166;-71
2022/11/25 04:56:48;;;;;;;605.37;564.37;;;3.10;36.20;;;;;;5054104;28;20178;-70
2022/11/25 05:02:12;;;;;;;513.05;479.95;;;3.00;36.20;;;;;;5041418;28;20284;-71
2022/11/25 05:04:38;;;;;;;583.33;549.03;;;2.90;36.40;;;;;;5053936;28;20248;-70
2022/11/25 05:07:04;;;;;;;543.47;511.58;;;2.80;36.30;;;;;;5053790;28;20235;-71
2022/11/25 05:09:30;;;;;;;457.40;428.73;;;2.70;36.20;;;;;;5053637;28;20262;-70
2022/11/25 05:11:55;;;;;;;458.17;430.87;;;2.60;36.10;;;;;;5053958;28;20254;-70
2022/11/25 05:14:22;;;;;;;558.90;525.50;;;2.50;36.90;;;;;;5054232;28;20202;-70
2022/11/25 05:16:48;;;;;;;318.52;297.45;;;2.50;37.20;;;;;;5054094;28;20172;-70
2022/11/25 05:19:13;;;;;;;538.73;506.97;;;2.50;36.90;;;;;;5052285;28;20597;-70
2022/11/25 05:21:39;;;;;;;478.00;449.87;;;2.40;36.70;;;;;;5053252;28;20201;-70
2022/11/25 05:24:05;;;;;;;362.50;338.10;;;2.30;37.10;;;;;;5053076;28;20214;-69
2022/11/25 05:26:30;;;;;;;650.57;608.47;;;2.30;37.60;;;;;;5053932;28;20172;-70
2022/11/25 05:28:59;;;;;;;407.47;383.00;;;2.30;36.60;;;;;;5054649;28;20215;-69
2022/11/25 05:31:25;;;;;;;572.65;536.47;;;2.20;37.40;;;;;;5053981;28;20179;-70
2022/11/25 05:33:50;;;;;;;468.63;440.80;;;2.00;38.00;;;;;;5055517;28;20171;-70
2022/11/25 05:36:16;;;;;;;549.07;516.20;;;2.00;38.10;;;;;;5053851;28;20185;-70
2022/11/25 05:38:41;;;;;;;442.60;417.13;;;2.00;38.50;;;;;;5053099;28;20199;-70
2022/11/25 05:41:09;;;;;;;290.03;269.80;;;2.00;38.30;;;;;;5053069;28;20269;-70
2022/11/25 05:43:35;;;;;;;566.55;530.88;;;2.10;40.20;;;;;;5052585;28;20194;-70
2022/11/25 05:46:04;;;;;;;373.00;351.07;;;2.10;39.50;;;;;;5053625;28;20167;-71
2022/11/25 05:48:30;;;;;;;273.42;255.73;;;2.10;40.80;;;;;;5054198;28;20704;-70
2022/11/25 05:51:02;;;;;;;321.43;301.27;;;2.20;40.90;;;;;;5052890;28;20174;-70
2022/11/25 05:53:29;;;;;;;343.38;323.02;;;2.30;40.90;;;;;;5052609;28;20183;-71
2022/11/25 05:55:58;;;;;;;386.13;363.35;;;2.40;40.50;;;;;;5052351;28;20176;-69
2022/11/25 05:58:24;;;;;;;455.40;422.50;;;2.50;40.30;;;;;;5052317;28;20225;-68
2022/11/25 06:00:51;;;;;;;612.13;568.75;;;2.40;39.80;;;;;;5052248;28;20175;-67
2022/11/25 06:03:16;;;;;;;753.90;701.13;;;2.40;39.50;;;;;;5051751;28;20206;-67
2022/11/25 06:05:43;;;;;;;279.70;261.87;;;2.30;38.90;;;;;;5051881;28;20222;-67
2022/11/25 06:08:09;;;;;;;385.98;363.00;;;2.40;39.10;;;;;;5051826;28;20212;-68
2022/11/25 06:10:38;;;;;;;434.60;407.97;;;2.30;38.50;;;;;;5052081;28;20179;-68
2022/11/25 06:13:03;;;;;;;426.77;398.60;;;2.30;38.30;;;;;;5051510;28;20417;-68
2022/11/25 06:15:29;;;;;;;363.37;340.87;;;2.20;38.70;;;;;;5051828;28;20178;-68
2022/11/25 06:17:55;;;;;;;421.33;391.47;;;2.20;38.50;;;;;;5051634;28;20202;-67
2022/11/25 06:20:20;;;;;;;491.10;461.07;;;2.20;38.60;;;;;;5051681;28;20180;-68
2022/11/25 06:22:46;;;;;;;391.93;368.07;;;2.10;37.50;;;;;;5051477;28;20184;-68
2022/11/25 06:25:12;;;;;;;404.10;378.10;;;2.00;38.40;;;;;;5050897;28;20273;-69
2022/11/25 06:27:37;;;;;;;680.27;634.47;;;2.00;38.60;;;;;;5051515;28;20615;-69
2022/11/25 06:30:03;;;;;;;525.50;487.00;;;2.00;38.20;;;;;;5051774;28;20169;-70
2022/11/25 06:32:29;;;;;;;504.35;470.45;;;2.00;38.60;;;;;;5051415;28;20253;-70
2022/11/25 06:34:54;;;;;;;358.27;335.93;;;2.10;39.50;;;;;;5051666;28;20234;-70
2022/11/25 06:37:20;;;;;;;273.97;255.57;;;2.20;38.90;;;;;;5051541;28;20202;-70
2022/11/25 06:39:46;;;;;;;165.93;151.67;;;2.30;39.20;;;;;;5051682;28;20179;-70
2022/11/25 06:42:11;;;;;;;371.92;350.05;;;2.40;39.50;;;;;;5051267;28;20642;-70
2022/11/25 06:44:37;;;;;;;318.57;298.30;;;2.40;38.90;;;;;;5051548;28;20179;-70
2022/11/25 06:47:03;;;;;;;365.80;339.83;;;2.50;38.30;;;;;;5051495;28;20327;-70
2022/11/25 06:49:28;;;;;;;348.50;327.03;;;2.60;38.70;;;;;;5051237;28;20216;-70
2022/11/25 06:51:54;;;;;;;431.20;404.43;;;2.60;38.90;;;;;;5046421;28;20182;-70
2022/11/25 06:54:19;;;;;;;296.60;277.80;;;2.70;39.60;;;;;;5050466;28;20176;-70
2022/11/25 06:56:50;;;;;;;326.90;307.40;;;2.80;39.20;;;;;;5050800;28;20233;-70
2022/11/25 06:59:17;;;;;;;204.40;186.18;;;2.80;38.50;;;;;;5050371;28;20266;-69
2022/11/25 07:01:43;;;;;;;674.78;628.17;;;2.90;38.20;;;;;;5052728;28;20176;-69
2022/11/25 07:04:08;;;;;;;613.05;574.08;;;3.00;37.80;;;;;;5055467;28;20546;-70
2022/11/25 07:06:34;;;;;;;443.00;418.80;;;3.00;39.00;;;;;;5055299;28;20177;-69
2022/11/25 07:09:00;;;;;;;428.90;404.87;;;3.10;38.90;;;;;;5055330;28;20207;-70
2022/11/25 07:11:31;;;;;;;320.20;297.73;;;3.20;39.30;;;;;;5055301;28;20259;-69
2022/11/25 07:13:59;;;;;;;543.28;507.35;;;3.40;38.90;;;;;;5055248;28;20661;-70
2022/11/25 07:16:26;;;;;;;340.70;320.90;;;3.40;38.50;;;;;;5055210;28;20647;-69
2022/11/25 07:18:51;;;;;;;437.80;414.15;;;3.50;38.30;;;;;;5055176;28;20194;-70
2022/11/25 07:21:19;;;;;;;381.97;356.50;;;3.60;38.30;;;;;;5055097;28;20187;-70
2022/11/25 07:23:46;;;;;;;284.48;265.98;;;3.70;39.10;;;;;;5055121;28;20181;-70
2022/11/25 07:26:23;;;;;;;475.88;447.48;;;3.80;37.10;;;;;;5055425;28;20182;-69
2022/11/25 07:28:50;;;;;;;469.75;441.13;;;3.90;35.30;;;;;;5054985;28;20219;-70
2022/11/25 07:31:18;;;;;;;427.35;401.52;;;4.00;35.90;;;;;;5055316;28;20258;-68
2022/11/25 07:33:44;;;;;;;409.60;385.00;;;4.10;35.10;;;;;;5055021;28;20172;-69
2022/11/25 07:36:11;;;;;;;328.67;307.88;;;4.20;34.70;;;;;;5055116;28;20591;-69
2022/11/25 07:38:37;;;;;;;494.90;467.48;;;4.30;34.60;;;;;;5054953;28;20200;-69
2022/11/25 07:41:11;;;;;;;522.00;492.10;;;4.40;34.60;;;;;;5054996;28;20247;-69
2022/11/25 07:43:38;;;;;;;501.63;472.95;;;4.50;33.70;;;;;;5054618;28;20473;-69
2022/11/25 07:46:08;;;;;;;514.58;483.92;;;4.60;33.40;;;;;;5054932;28;20611;-69
2022/11/25 07:48:33;;;;;;;410.20;383.90;;;4.60;33.00;;;;;;5054844;28;20293;-69
2022/11/25 07:50:58;;;;;;;317.23;294.10;;;4.60;32.80;;;;;;5054824;28;20257;-69
2022/11/25 07:53:24;;;;;;;389.10;362.83;;;4.60;32.00;;;;;;5054572;28;20239;-69
2022/11/25 07:55:50;;;;;;;417.83;390.87;;;4.70;32.00;;;;;;5054764;28;20173;-70
2022/11/25 07:58:15;;;;;;;263.77;244.33;;;4.80;30.90;;;;;;5088057;22;20234;-71
2022/11/25 08:00:41;;;;;;;528.37;496.70;;;4.90;30.30;;;;;;5074447;28;20189;-74
2022/11/25 08:03:06;;;;;;;426.53;398.07;;;5.00;30.60;;;;;;5057102;28;20622;-74
2022/11/25 08:05:32;;;;;;;457.90;426.60;;;5.20;31.40;;;;;;5074322;28;20181;-73
2022/11/25 08:07:58;;;;;;;461.23;430.80;;;5.30;30.80;;;;;;5060772;28;20217;-73
2022/11/25 08:10:23;;;;;;;488.50;456.00;;;5.40;29.60;;;;;;5074898;28;20411;-73
2022/11/25 08:12:49;;;;;;;498.83;467.60;;;5.50;29.00;;;;;;5088276;28;20180;-72
2022/11/25 08:15:14;;;;;;;547.77;509.53;;;5.70;29.70;;;;;;5074018;28;20170;-72
2022/11/25 08:17:40;;;;;;;231.97;214.23;;;5.70;28.80;;;;;;5073874;28;20200;-72
2022/11/25 08:20:06;;;;;;;474.13;444.83;;;5.80;28.90;;;;;;5074017;28;20366;-73
2022/11/25 08:22:32;;;;;;;402.93;376.03;;;5.90;28.90;;;;;;5073752;28;20185;-73
2022/11/25 08:24:57;;;;;;;529.87;495.10;;;6.00;27.90;;;;;;5075455;28;20412;-72
2022/11/25 08:27:23;;;;;;;480.00;448.50;;;6.00;26.80;;;;;;5073687;28;20232;-71
2022/11/25 08:29:48;;;;;;;268.73;248.53;;;6.00;27.00;;;;;;5073870;28;20205;-72
2022/11/25 08:32:14;;;;;;;505.00;469.30;;;6.00;25.90;;;;;;5072276;28;20648;-72
2022/11/25 08:34:41;;;;;;;546.27;509.07;;;6.00;26.50;;;;;;5073722;28;20178;-71
2022/11/25 08:37:06;;;;;;;197.43;181.80;;;6.00;26.20;;;;;;5089176;28;20184;-71
2022/11/25 08:39:32;;;;;;;455.83;429.30;;;6.00;26.00;;;;;;5073524;28;20906;-72
2022/11/25 08:41:57;;;;;;;569.07;532.47;;;6.00;26.30;;;;;;5071861;28;20178;-70
2022/11/25 08:44:27;;;;;;;430.13;398.83;;;6.10;26.10;;;;;;5072227;28;20181;-71
2022/11/25 08:46:52;;;;;;;302.27;282.03;;;6.20;25.00;;;;;;5073500;28;20166;-71
2022/11/25 08:49:18;;;;;;;297.33;277.70;;;6.30;25.10;;;;;;5071903;28;20475;-73
2022/11/25 08:51:44;;;;;;;298.60;278.77;;;6.30;25.00;;;;;;5072154;28;20664;-71
2022/11/25 08:54:10;;;;;;;618.93;580.50;;;6.40;25.00;;;;;;5075157;28;20415;-74
2022/11/25 08:56:35;;;;;;;486.33;457.13;;;6.40;24.30;;;;;;5072757;28;20178;-71
2022/11/25 08:59:01;;;;;;;701.70;656.93;;;6.50;23.50;;;;;;5073009;28;20221;-71
2022/11/25 09:01:28;;;;;;;251.03;232.73;;;6.60;23.30;;;;;;5072944;28;20738;-71
2022/11/25 09:03:56;;;;;;;313.80;291.97;;;6.60;23.00;;;;;;5071740;28;20792;-72
2022/11/25 09:06:23;;;;;;;497.30;463.43;;;6.50;23.20;;;;;;5073010;28;20415;-72
2022/11/25 09:08:49;;;;;;;565.47;528.97;;;6.40;23.40;;;;;;5072684;28;20961;-72
2022/11/25 09:11:15;;;;;;;421.93;393.23;;;6.40;23.10;;;;;;5072852;28;20419;-72
2022/11/25 09:13:40;;;;;;;489.03;458.13;;;6.40;23.10;;;;;;5071358;28;20182;-72
2022/11/25 09:16:07;;;;;;;123.87;111.90;;;6.30;23.20;;;;;;5072970;28;20174;-72
2022/11/25 09:18:34;;;;;;;301.77;282.43;;;6.40;23.50;;;;;;5072892;28;20586;-72
2022/11/25 09:21:09;;;;;;;289.83;268.17;;;6.40;22.80;;;;;;5071645;28;20427;-70
2022/11/25 09:23:35;;;;;;;410.10;380.17;;;6.50;23.40;;;;;;5073609;28;20491;-74
2022/11/25 09:26:00;;;;;;;366.10;342.57;;;6.60;23.40;;;;;;5072375;28;20495;-74
2022/11/25 09:28:26;;;;;;;410.83;383.50;;;6.60;23.40;;;;;;5072432;28;20209;-75
2022/11/25 09:30:52;;;;;;;438.23;409.43;;;6.60;21.80;;;;;;5072638;28;20170;-74
2022/11/25 09:33:18;;;;;;;430.23;400.53;;;6.80;21.30;;;;;;5072188;28;20167;-75
2022/11/25 09:35:44;;;;;;;313.70;292.80;;;6.80;21.30;;;;;;5072514;28;20178;-74
2022/11/25 09:38:10;;;;;;;229.20;212.37;;;7.10;21.50;;;;;;5072233;28;20444;-74
2022/11/25 09:40:42;;;;;;;477.40;450.23;;;7.50;20.90;;;;;;5071178;28;20412;-75
2022/11/25 09:46:48;;;;;;;298.53;279.37;;;8.10;17.90;;;;;;5072644;28;20982;-74
2022/11/25 09:49:37;;;;;;;501.20;472.43;;;8.60;18.20;;;;;;5072500;28;20463;-75
2022/11/25 09:52:17;;;;;;;264.37;246.97;;;8.90;18.40;;;;;;5072220;28;20402;-74
2022/11/25 09:55:04;;;;;;;314.10;293.47;;;9.30;16.80;;;;;;5070888;28;20930;-75
2022/11/25 09:57:48;;;;;;;239.60;223.87;;;9.70;14.60;;;;;;5070633;28;20911;-74
2022/11/25 10:00:18;;;;;;;488.40;459.37;;;9.90;13.80;;;;;;5072121;28;20412;-75
2022/11/25 10:03:08;;;;;;;132.97;121.30;;;10.20;13.40;;;;;;5071778;28;20770;-75
2022/11/25 10:05:38;;;;;;;412.23;387.70;;;10.50;12.20;;;;;;5072018;28;20412;-75
2022/11/25 10:08:22;;;;;;;351.23;329.57;;;10.70;11.50;;;;;;5071878;28;20455;-76
2022/11/25 10:10:58;;;;;;;462.80;434.43;;;11.00;12.10;;;;;;5072350;28;20413;-69
2022/11/25 10:13:35;;;;;;;500.97;473.37;;;11.40;11.10;;;;;;5071648;28;20405;-73
2022/11/25 10:16:05;;;;;;;331.37;310.83;;;11.70;11.00;;;;;;5070541;28;20423;-73
2022/11/25 10:18:37;;;;;;;417.47;392.93;;;11.90;10.80;;;;;;5071862;28;20874;-74
2022/11/25 10:21:03;;;;;;;445.17;419.03;;;12.00;10.20;;;;;;5072090;28;20471;-74
2022/11/25 10:23:39;;;;;;;444.50;419.77;;;12.00;10.20;;;;;;5071532;28;20457;-73
2022/11/25 10:26:14;;;;;;;396.37;374.40;;;12.00;10.60;;;;;;5087329;28;20412;-73
2022/11/25 10:28:54;;;;;;;495.37;465.63;;;11.80;10.40;;;;;;5071613;28;20459;-73
2022/11/25 10:31:31;;;;;;;203.50;188.30;;;11.60;10.50;;;;;;5070444;28;20447;-71
2022/11/25 10:33:58;;;;;;;331.40;309.47;;;11.40;10.60;;;;;;5071706;28;20764;-71
2022/11/25 10:36:33;;;;;;;351.97;331.20;;;11.30;10.60;;;;;;5071040;28;20738;-71
2022/11/25 10:39:04;;;;;;;537.37;505.17;;;11.00;10.90;;;;;;5068414;28;20504;-75
2022/11/25 10:41:33;;;;;;;476.97;447.20;;;10.60;11.80;;;;;;5076248;28;20435;-72
2022/11/25 10:43:59;;;;;;;418.10;394.13;;;10.30;12.30;;;;;;5069593;28;20485;-73
2022/11/25 10:46:38;;;;;;;425.10;398.03;;;10.10;12.90;;;;;;5070575;28;20804;-72
2022/11/25 10:49:17;;;;;;;431.73;403.60;;;9.90;14.70;;;;;;5070285;28;20204;-73
2022/11/25 10:51:46;;;;;;;342.77;321.13;;;9.90;14.80;;;;;;5069423;28;20915;-73
2022/11/25 10:54:20;;;;;;;271.43;253.80;;;9.80;14.90;;;;;;5073014;28;20419;-73
2022/11/25 10:56:53;;;;;;;482.77;452.90;;;9.90;15.30;;;;;;5058893;28;20935;-72
2022/11/25 10:59:21;;;;;;;565.03;531.23;;;9.90;15.50;;;;;;5053792;28;20455;-72
2022/11/25 11:01:47;;;;;;;308.03;288.33;;;9.90;15.80;;;;;;5069827;28;20781;-72
2022/11/25 11:04:14;;;;;;;345.23;323.50;;;10.20;15.40;;;;;;5071013;28;20507;-72
2022/11/25 11:06:42;;;;;;;419.13;394.83;;;10.20;14.20;;;;;;5070589;28;20185;-73
2022/11/25 11:09:42;;;;;;;369.83;348.00;;;10.20;15.30;;;;;;5070403;28;20799;-72
2022/11/25 11:12:25;;;;;;;443.20;418.37;;;10.40;15.20;;;;;;5063163;28;20454;-73
2022/11/25 11:14:52;;;;;;;320.87;300.07;;;10.60;14.50;;;;;;5072771;28;20776;-70
2022/11/25 11:17:32;;;;;;;530.60;498.97;;;10.70;13.80;;;;;;5073599;28;20408;-71
2022/11/25 11:20:04;;;;;;;354.30;331.37;;;10.50;14.10;;;;;;5070931;28;20418;-72
2022/11/25 11:22:32;;;;;;;366.10;341.13;;;10.50;14.40;;;;;;5070824;28;20420;-73
2022/11/25 11:25:23;;;;;;;394.50;370.47;;;10.20;14.40;;;;;;5070439;28;20424;-73
2022/11/25 11:27:49;;;;;;;494.43;466.77;;;9.90;16.30;;;;;;5071003;28;20957;-73
2022/11/25 11:30:20;;;;;;;245.20;227.67;;;9.80;16.80;;;;;;5071152;28;20408;-73
2022/11/25 11:33:25;;;;;;;325.50;304.53;;;9.90;16.40;;;;;;5070747;28;20253;-73
2022/11/25 11:35:56;;;;;;;338.07;314.10;;;9.80;16.40;;;;;;5069622;28;20911;-73
2022/11/25 11:38:32;;;;;;;498.13;469.07;;;9.80;16.70;;;;;;5070687;28;20435;-73
2022/11/25 11:41:12;;;;;;;567.80;532.07;;;9.50;17.40;;;;;;5071061;28;20422;-73
2022/11/25 11:44:03;;;;;;;485.93;458.60;;;9.60;17.70;;;;;;5069430;28;20423;-72
2022/11/25 11:46:57;;;;;;;543.47;512.77;;;9.60;17.70;;;;;;5069679;28;20408;-73
2022/11/25 11:49:38;;;;;;;636.67;593.37;;;9.70;17.50;;;;;;5074179;28;20468;-71
2022/11/25 11:52:10;;;;;;;499.40;468.13;;;9.80;17.40;;;;;;5073972;28;20405;-72
2022/11/25 11:54:41;;;;;;;574.50;536.00;;;9.80;17.40;;;;;;5073108;28;20838;-72
2022/11/25 11:57:24;;;;;;;541.20;510.93;;;9.80;17.40;;;;;;5074091;28;20411;-72
2022/11/25 12:00:00;;;;;;;488.30;459.67;;;9.90;17.20;;;;;;5074193;28;20921;-71
2022/11/25 12:02:54;;;;;;;559.97;528.90;;;10.10;16.40;;;;;;5074678;28;20419;-72
2022/11/25 12:05:23;;;;;;;528.03;498.60;;;10.20;16.30;;;;;;5074102;28;20802;-72
2022/11/25 12:08:04;;;;;;;283.73;264.80;;;10.40;15.80;;;;;;5073775;28;20432;-72
2022/11/25 12:10:53;;;;;;;405.97;379.00;;;10.40;15.30;;;;;;5073659;28;20408;-72
2022/11/25 12:13:54;;;;;;;359.93;334.27;;;10.40;15.10;;;;;;5073232;28;20423;-72
2022/11/25 12:16:32;;;;;;;553.50;521.70;;;10.00;15.90;;;;;;5072523;28;20413;-72
2022/11/25 12:19:13;;;;;;;504.33;474.43;;;9.90;17.40;;;;;;5073747;28;20501;-72
2022/11/25 12:21:49;;;;;;;475.00;446.23;;;9.90;17.70;;;;;;5073680;28;20411;-72
2022/11/25 12:24:39;;;;;;;407.67;382.93;;;9.80;17.90;;;;;;5074179;28;20419;-71
2022/11/25 12:27:17;;;;;;;521.30;491.40;;;9.80;18.10;;;;;;5073611;28;20780;-72
2022/11/25 12:30:01;;;;;;;381.07;357.37;;;9.80;17.90;;;;;;5073614;28;20458;-72
2022/11/25 12:32:44;;;;;;;201.93;186.80;;;9.80;17.90;;;;;;5073405;28;20553;-71
2022/11/25 12:35:10;;;;;;;454.00;423.57;;;9.70;18.40;;;;;;5073648;28;20745;-72
2022/11/25 12:37:43;;;;;;;537.57;507.70;;;9.50;18.50;;;;;;5073451;28;20457;-72